首页
METAR-TAF:

METAR-TAF

机场 :

伊萨卡, 紐約州, 美国

纬度: 42-29N, 经度: 076-27W, 海拔: 335米

当前天气观测

该预报发布于24分钟前的02:56 UTC
静风
温度 13°C
湿度 100%
气压 1014 hPa
能見度: 14.5公里
阴天层高于300英尺

METAR: KITH 170256Z AUTO 00000KT 9SM OVC003 13/13 A2993 RMK AO2 SLP134 T01330133 51015

时间: 23:20 (03:20 UTC)

预报

该预报发布于45分钟前的02:35 UTC
预报有效从17日的 03点(UTC)到 17日的 24点(UTC)
风速5节,风向多变
能見度: 10公里
阴天层高于300英尺
短暂存在
从 17日的 03点(UTC)到 17日的 04点(UTC)
能見度: 4.8公里
轻雾
从 17日的 0400点(UTC)
风速3节,风向多变
能見度: 4.8公里
多云层高于500英尺
轻雾
从 17日的 0900点(UTC)
风速3节,风向多变
能見度: 1.6公里
阴天层高于200英尺
轻雾
从 17日的 1300点(UTC)
风速3节,风向多变
能見度: 9.7公里
多云层高于1500英尺
轻雾
从 17日的 1700点(UTC)
风速5节,风向多变
能見度: 10公里
散云层高于3500英尺
多云层高于20000英尺

TAF: KITH 170235Z 1703/1724 VRB05KT P6SM OVC003 TEMPO 1703/1704 3SM BR FM170400 VRB03KT 3SM BR BKN005 FM170900 VRB03KT 1SM BR OVC002 FM171300 VRB03KT 6SM BR BKN015 FM171700 VRB05KT P6SM SCT035 BKN200

超过4000个机场的气象观测和天气预报(METAR&TAF报告)。

可查询的气象台以黄色和红色小点在地图上表示。

将鼠标移到小点上方,可查看气象台名称。

然后点击查看天气观测和预报。

如需切换地图:点击带黑十字的绿色按钮放大地图;点击带横线的绿色按钮缩小地图;或者点击绿色箭头查看邻近地区的地图。


METAR-TAF: